Veyo, Utah
Current Conditions -  °F | °C
As of 6:35 PM on Wednesday 26 Nov 2014 (Local Time) from KSGU Reporting Station
Clear Clear  
Wind Chill: 52°   Ceiling: Unl
Heat Index: 52°   Visibility: 10mi
Dew Point: 16°   Wind: 0mph
Humidity: 24%   Direction: NA
Pressure: 30.36"   Gusts: NA
Location:  37.34°N, 113.69°W
Report Text: KSGU 270135Z AUTO 00000KT 10SM CLR 11/M09 A3036 RMK AO1
Loading
Personal Weather Stations






























Interactive Weather Map New forecast layout! Learn more

10-Day Weather Forecast

Advertisements
Track Severe Weather on mobile